createdAt,value
2022-10-05T00:02:25.517Z,7.20
2022-10-05T00:04:56.918Z,7.23
2022-10-05T00:07:26.066Z,6.30
2022-10-05T00:09:56.875Z,6.37
2022-10-05T00:12:29.715Z,5.43
2022-10-05T00:15:02.212Z,4.00
2022-10-05T00:17:32.023Z,4.37
2022-10-05T00:20:00.238Z,4.50
2022-10-05T00:22:33.420Z,4.40
2022-10-05T00:25:04.049Z,4.30
2022-10-05T00:27:37.979Z,4.40
2022-10-05T00:30:15.609Z,3.83
2022-10-05T00:32:44.464Z,2.93
2022-10-05T00:35:14.808Z,3.30
2022-10-05T00:37:43.419Z,3.33
2022-10-05T00:40:24.807Z,3.53
2022-10-05T00:43:13.994Z,3.13
2022-10-05T00:45:47.246Z,3.47
2022-10-05T00:48:26.482Z,2.73
2022-10-05T00:51:14.457Z,2.80
2022-10-05T00:53:49.219Z,2.83
2022-10-05T00:56:36.592Z,2.67
2022-10-05T00:59:21.817Z,3.03
2022-10-05T01:01:59.056Z,2.50
2022-10-05T01:04:38.603Z,3.13
2022-10-05T01:07:19.083Z,2.97
2022-10-05T01:09:56.729Z,3.17
2022-10-05T01:12:37.050Z,3.40
2022-10-05T01:15:12.295Z,2.60
2022-10-05T01:17:46.200Z,2.67
2022-10-05T01:20:36.043Z,3.40
2022-10-05T01:24:25.718Z,2.60
2022-10-05T01:27:35.473Z,2.83
2022-10-05T01:30:09.826Z,2.70
2022-10-05T01:32:47.211Z,2.70
2022-10-05T01:35:29.994Z,2.77
2022-10-05T01:38:13.643Z,2.90
2022-10-05T01:40:52.962Z,2.43
2022-10-05T01:43:31.912Z,3.00
2022-10-05T01:46:08.992Z,2.47
2022-10-05T01:48:49.675Z,3.20
2022-10-05T01:51:28.261Z,3.00
2022-10-05T01:54:06.608Z,3.27
2022-10-05T01:56:44.738Z,3.20
2022-10-05T01:59:26.663Z,2.63
2022-10-05T02:02:03.327Z,2.63
2022-10-05T02:05:01.089Z,3.27
2022-10-05T02:07:30.962Z,3.00
2022-10-05T02:10:04.730Z,2.50
2022-10-05T02:12:38.870Z,2.80
2022-10-05T02:15:15.767Z,2.97
2022-10-05T02:17:48.500Z,2.90
2022-10-05T02:20:22.093Z,3.07
2022-10-05T02:22:54.618Z,2.90
2022-10-05T02:25:29.020Z,3.03
2022-10-05T02:28:02.426Z,2.80
2022-10-05T02:30:36.411Z,3.07
2022-10-05T02:33:09.706Z,2.90
2022-10-05T02:35:38.343Z,3.20
2022-10-05T02:38:15.835Z,3.10
2022-10-05T02:40:55.964Z,2.83
2022-10-05T02:43:40.541Z,2.83
2022-10-05T02:46:23.137Z,3.27
2022-10-05T02:49:06.742Z,3.33
2022-10-05T02:51:46.461Z,3.33
2022-10-05T02:54:30.621Z,3.70
2022-10-05T02:57:05.083Z,3.23
2022-10-05T02:59:39.895Z,3.67
2022-10-05T03:02:18.617Z,3.13
2022-10-05T03:04:59.598Z,2.97
2022-10-05T03:07:34.642Z,3.03
2022-10-05T03:10:10.029Z,3.60
2022-10-05T03:12:50.948Z,3.37
2022-10-05T03:16:05.740Z,3.67
2022-10-05T03:18:48.410Z,2.97
2022-10-05T03:21:35.122Z,3.30
2022-10-05T03:24:22.800Z,3.80
2022-10-05T03:26:59.218Z,3.50
2022-10-05T03:29:38.287Z,3.50
2022-10-05T03:32:19.798Z,3.50
2022-10-05T03:34:56.734Z,3.77
2022-10-05T03:37:34.924Z,3.30
2022-10-05T03:40:11.238Z,3.53
2022-10-05T03:42:54.413Z,3.40
2022-10-05T03:45:29.763Z,3.67
2022-10-05T03:48:05.842Z,3.20
2022-10-05T03:50:46.988Z,3.43
2022-10-05T03:53:20.740Z,3.03
2022-10-05T03:55:55.583Z,2.97
2022-10-05T03:58:30.675Z,3.20
2022-10-05T04:01:03.078Z,3.63
2022-10-05T04:03:35.818Z,3.13
2022-10-05T04:06:12.513Z,3.37
2022-10-05T04:08:48.087Z,3.70
2022-10-05T04:11:22.586Z,3.27
2022-10-05T04:13:56.380Z,3.10
2022-10-05T04:16:28.820Z,3.47
2022-10-05T04:19:03.312Z,3.10
2022-10-05T04:21:39.219Z,4.03
2022-10-05T04:24:15.912Z,3.10
2022-10-05T04:26:50.782Z,3.33
2022-10-05T04:29:31.950Z,3.47
2022-10-05T04:32:23.215Z,3.53
2022-10-05T04:35:05.485Z,3.67
2022-10-05T04:37:48.082Z,4.20
2022-10-05T04:40:35.424Z,4.33
2022-10-05T04:43:10.961Z,4.50
2022-10-05T04:45:59.552Z,4.37
2022-10-05T04:48:49.432Z,3.90
2022-10-05T04:51:34.791Z,3.97
2022-10-05T04:54:16.970Z,3.67
2022-10-05T04:56:50.821Z,4.63
2022-10-05T04:59:46.130Z,6.23
2022-10-05T05:02:25.563Z,7.43
2022-10-05T05:05:22.438Z,9.90
2022-10-05T05:08:02.179Z,10.17
2022-10-05T05:10:58.483Z,7.90
2022-10-05T05:13:51.717Z,6.90
2022-10-05T05:16:30.250Z,5.50
2022-10-05T05:19:16.655Z,5.27
2022-10-05T05:21:55.501Z,5.67
2022-10-05T05:24:37.330Z,6.10
2022-10-05T05:27:33.219Z,5.47
2022-10-05T05:30:07.792Z,5.93
2022-10-05T05:32:45.932Z,7.13
2022-10-05T05:36:13.243Z,8.00
2022-10-05T05:38:48.660Z,8.70
2022-10-05T05:41:28.333Z,9.87
2022-10-05T05:44:09.636Z,10.30
2022-10-05T05:47:02.297Z,6.90
2022-10-05T05:49:43.035Z,6.33
2022-10-05T05:52:19.459Z,6.30
2022-10-05T05:54:56.104Z,5.47
2022-10-05T05:57:30.584Z,5.93
2022-10-05T06:00:07.467Z,5.40
2022-10-05T06:02:45.685Z,5.07
2022-10-05T06:05:30.114Z,4.87
2022-10-05T06:08:02.804Z,4.60
2022-10-05T06:10:41.400Z,5.23
2022-10-05T06:13:19.247Z,6.27
2022-10-05T06:15:54.455Z,7.07
2022-10-05T06:18:24.804Z,7.03
2022-10-05T06:20:59.170Z,7.57
2022-10-05T06:23:36.720Z,12.27
2022-10-05T06:26:19.199Z,9.07
2022-10-05T06:28:53.702Z,7.17
2022-10-05T06:31:43.134Z,6.77
2022-10-05T06:34:28.449Z,7.13
2022-10-05T06:37:02.897Z,7.67
2022-10-05T06:39:55.448Z,7.30
2022-10-05T06:43:29.874Z,11.80
2022-10-05T06:46:08.676Z,9.80
2022-10-05T06:49:02.800Z,10.77
2022-10-05T06:51:39.913Z,12.47
2022-10-05T06:54:24.217Z,8.83
2022-10-05T06:57:00.971Z,17.30
2022-10-05T06:59:37.487Z,11.07
2022-10-05T07:02:18.918Z,13.50
2022-10-05T07:05:06.167Z,10.43
2022-10-05T07:07:44.005Z,11.40
2022-10-05T07:10:26.103Z,16.80
2022-10-05T07:13:20.900Z,31.40
2022-10-05T07:16:00.216Z,20.20
2022-10-05T07:19:03.150Z,21.23
2022-10-05T07:21:42.045Z,11.37
2022-10-05T07:24:27.317Z,10.00
2022-10-05T07:27:05.486Z,7.27
2022-10-05T07:29:40.823Z,6.90
2022-10-05T07:32:25.497Z,9.63
2022-10-05T07:35:05.151Z,7.67
2022-10-05T07:37:55.380Z,6.97
2022-10-05T07:40:29.878Z,6.97
2022-10-05T07:43:08.835Z,6.33
2022-10-05T07:45:46.854Z,6.50
2022-10-05T07:48:21.635Z,7.07
2022-10-05T07:51:01.239Z,7.20
2022-10-05T07:53:38.516Z,6.73
2022-10-05T07:56:16.021Z,6.17
2022-10-05T07:58:48.317Z,6.53
2022-10-05T08:01:24.606Z,7.03
2022-10-05T08:03:57.506Z,7.17
2022-10-05T08:06:45.056Z,6.67
2022-10-05T08:09:31.415Z,7.10
2022-10-05T08:12:23.977Z,6.37
2022-10-05T08:14:58.033Z,7.00
2022-10-05T08:17:39.310Z,7.60
2022-10-05T08:20:35.028Z,7.30
2022-10-05T08:23:17.433Z,6.77
2022-10-05T08:26:08.019Z,5.87
2022-10-05T08:28:40.393Z,6.40
2022-10-05T08:31:18.120Z,5.80
2022-10-05T08:33:58.651Z,5.13
2022-10-05T08:36:49.235Z,5.73
2022-10-05T08:39:23.025Z,4.90
2022-10-05T08:42:40.072Z,6.50
2022-10-05T08:45:51.592Z,5.50
2022-10-05T08:48:37.556Z,5.37
2022-10-05T08:51:55.260Z,5.20
2022-10-05T08:54:41.319Z,4.50
2022-10-05T08:57:47.509Z,4.70
2022-10-05T09:00:20.127Z,4.23
2022-10-05T09:03:34.656Z,4.40
2022-10-05T09:06:25.369Z,4.23
2022-10-05T09:09:24.532Z,4.23
2022-10-05T09:12:23.177Z,4.43
2022-10-05T09:15:24.833Z,4.13
2022-10-05T09:18:44.441Z,4.27
2022-10-05T09:21:26.372Z,3.90
2022-10-05T09:24:24.060Z,3.90
2022-10-05T09:27:05.010Z,3.90
2022-10-05T09:30:15.257Z,3.93
2022-10-05T09:33:32.765Z,3.90
2022-10-05T09:36:35.390Z,3.43
2022-10-05T09:39:54.962Z,3.83
2022-10-05T09:43:11.489Z,4.00
2022-10-05T09:46:23.860Z,3.40
2022-10-05T09:49:21.210Z,3.83
2022-10-05T09:52:50.982Z,3.87
2022-10-05T09:55:50.141Z,3.43
2022-10-05T09:58:48.527Z,3.83
2022-10-05T10:01:47.077Z,3.80
2022-10-05T10:05:05.645Z,3.60
2022-10-05T10:08:05.708Z,3.70
2022-10-05T10:11:03.404Z,3.87
2022-10-05T10:14:04.006Z,3.80
2022-10-05T10:16:53.669Z,3.37
2022-10-05T10:19:47.798Z,3.03
2022-10-05T10:22:55.663Z,3.00
2022-10-05T10:26:25.444Z,2.90
2022-10-05T10:29:42.880Z,3.20
2022-10-05T10:33:17.555Z,2.60
2022-10-05T10:35:55.950Z,2.20
2022-10-05T10:38:34.435Z,2.20
2022-10-05T10:42:05.683Z,2.50
2022-10-05T10:45:04.794Z,2.90
2022-10-05T10:47:47.259Z,2.40
2022-10-05T10:51:14.892Z,2.40
2022-10-05T10:54:28.692Z,2.03
2022-10-05T10:57:05.055Z,2.40
2022-10-05T11:00:15.678Z,2.37
2022-10-05T11:03:25.062Z,2.53
2022-10-05T11:06:34.549Z,2.90
2022-10-05T11:09:41.162Z,2.00
2022-10-05T11:13:05.879Z,2.03
2022-10-05T11:16:37.149Z,2.40
2022-10-05T11:20:03.110Z,1.80
2022-10-05T11:23:39.081Z,2.47
2022-10-05T11:26:43.447Z,2.27
2022-10-05T11:30:01.960Z,2.00
2022-10-05T11:33:27.336Z,2.30
2022-10-05T11:37:05.482Z,2.27
2022-10-05T11:39:44.507Z,2.10
2022-10-05T11:43:05.473Z,2.10
2022-10-05T11:45:54.937Z,2.10
2022-10-05T11:48:55.556Z,2.17
2022-10-05T11:51:40.736Z,2.00
2022-10-05T11:55:09.772Z,2.00
2022-10-05T11:57:44.192Z,2.03
2022-10-05T12:00:19.939Z,1.90
2022-10-05T12:03:45.912Z,1.93
2022-10-05T12:06:46.863Z,2.20
2022-10-05T12:09:39.781Z,2.13
2022-10-05T12:12:18.555Z,3.07
2022-10-05T12:14:59.764Z,2.43
2022-10-05T12:17:35.910Z,3.63
2022-10-05T12:20:18.047Z,3.40
2022-10-05T12:22:53.244Z,2.90
2022-10-05T12:25:28.780Z,2.30
2022-10-05T12:28:04.887Z,2.03
2022-10-05T12:30:55.757Z,1.90
2022-10-05T12:33:31.651Z,2.40
2022-10-05T12:36:06.783Z,2.30
2022-10-05T12:38:42.643Z,2.00
2022-10-05T12:41:21.353Z,2.07
2022-10-05T12:44:06.053Z,2.50
2022-10-05T12:46:44.633Z,2.10
2022-10-05T12:49:45.447Z,2.00
2022-10-05T12:52:31.965Z,2.10
2022-10-05T12:55:11.697Z,1.80
2022-10-05T12:57:51.293Z,1.80
2022-10-05T13:00:23.141Z,2.07
2022-10-05T13:02:58.295Z,1.80
2022-10-05T13:05:33.788Z,1.87
2022-10-05T13:08:18.956Z,2.60
2022-10-05T13:10:53.492Z,2.13
2022-10-05T13:13:40.695Z,1.70
2022-10-05T13:16:24.297Z,1.80
2022-10-05T13:19:07.860Z,2.00
2022-10-05T13:21:57.048Z,1.80
2022-10-05T13:24:31.689Z,2.63
2022-10-05T13:27:09.179Z,1.80
2022-10-05T13:29:42.339Z,2.00
2022-10-05T13:32:19.244Z,2.47
2022-10-05T13:34:55.386Z,1.73
2022-10-05T13:37:34.639Z,1.60
2022-10-05T13:40:18.694Z,2.67
2022-10-05T13:42:55.752Z,2.80
2022-10-05T13:45:29.859Z,1.90
2022-10-05T13:48:16.092Z,1.70
2022-10-05T13:50:49.484Z,2.23
2022-10-05T13:53:26.559Z,1.60
2022-10-05T13:56:00.812Z,2.10
2022-10-05T13:58:40.065Z,1.70
2022-10-05T14:01:16.904Z,2.03
2022-10-05T14:04:07.411Z,1.80
2022-10-05T14:06:38.864Z,1.80
2022-10-05T14:09:14.975Z,1.70
2022-10-05T14:11:52.134Z,1.80
2022-10-05T14:14:28.416Z,1.50
2022-10-05T14:16:59.109Z,1.40
2022-10-05T14:19:32.847Z,1.57
2022-10-05T14:22:03.908Z,1.60
2022-10-05T14:24:50.210Z,1.43
2022-10-05T14:27:25.308Z,1.47
2022-10-05T14:30:02.288Z,1.23
2022-10-05T14:32:34.434Z,1.80
2022-10-05T14:35:15.655Z,1.50
2022-10-05T14:37:56.349Z,1.50
2022-10-05T14:40:42.727Z,1.40
2022-10-05T14:43:21.793Z,1.53
2022-10-05T14:46:00.723Z,1.50
2022-10-05T14:48:39.421Z,1.67
2022-10-05T14:51:12.713Z,1.80
2022-10-05T14:53:44.579Z,1.63
2022-10-05T14:56:38.655Z,1.50
2022-10-05T14:59:32.523Z,1.50
2022-10-05T15:02:21.164Z,1.30
2022-10-05T15:05:01.418Z,1.60
2022-10-05T15:07:36.147Z,1.23
2022-10-05T15:10:37.481Z,1.90
2022-10-05T15:13:16.651Z,1.97
2022-10-05T15:15:52.002Z,2.73
2022-10-05T15:18:37.363Z,3.03
2022-10-05T15:21:33.610Z,3.63
2022-10-05T15:24:06.385Z,3.97
2022-10-05T15:26:47.117Z,3.57
2022-10-05T15:29:41.926Z,2.60
2022-10-05T15:32:22.801Z,2.23
2022-10-05T15:35:11.997Z,2.53
2022-10-05T15:37:44.928Z,2.43
2022-10-05T15:40:24.170Z,2.17
2022-10-05T15:42:55.609Z,2.00
2022-10-05T15:45:32.365Z,1.90
2022-10-05T15:48:04.705Z,2.00
2022-10-05T15:50:46.717Z,2.03
2022-10-05T15:53:22.631Z,2.30
2022-10-05T15:55:56.791Z,1.80
2022-10-05T15:58:46.550Z,2.33
2022-10-05T16:01:20.640Z,2.57
2022-10-05T16:03:53.809Z,3.40
2022-10-05T16:06:56.830Z,2.83
2022-10-05T16:09:45.601Z,3.50
2022-10-05T16:12:34.629Z,3.10
2022-10-05T16:15:20.223Z,3.33
2022-10-05T16:18:32.238Z,2.90
2022-10-05T16:21:12.163Z,3.13
2022-10-05T16:23:53.972Z,3.10
2022-10-05T16:26:33.675Z,3.33
2022-10-05T16:29:07.063Z,5.10
2022-10-05T16:31:47.050Z,14.40
2022-10-05T16:34:32.703Z,10.10
2022-10-05T16:37:12.291Z,7.13
2022-10-05T16:39:56.849Z,33.40
2022-10-05T16:42:46.328Z,26.40
2022-10-05T16:45:30.979Z,13.07
2022-10-05T16:48:07.572Z,20.10
2022-10-05T16:50:49.646Z,22.23
2022-10-05T16:53:24.039Z,20.50
2022-10-05T16:55:58.731Z,17.33
2022-10-05T16:58:40.600Z,14.33
2022-10-05T17:01:24.839Z,7.37
2022-10-05T17:04:13.381Z,17.10
2022-10-05T17:06:58.049Z,8.93
2022-10-05T17:09:59.413Z,9.70
2022-10-05T17:12:55.908Z,9.03
2022-10-05T17:15:55.562Z,10.93
2022-10-05T17:18:49.023Z,9.43
2022-10-05T17:21:23.848Z,8.47
2022-10-05T17:23:58.473Z,8.27
2022-10-05T17:26:56.814Z,7.07
2022-10-05T17:29:42.963Z,5.83
2022-10-05T17:32:33.473Z,5.27
2022-10-05T17:35:19.188Z,4.67
2022-10-05T17:38:14.508Z,4.53
2022-10-05T17:41:19.689Z,4.33
2022-10-05T17:44:28.381Z,7.10
2022-10-05T17:47:00.389Z,6.90
2022-10-05T17:50:09.819Z,7.63
2022-10-05T17:53:00.003Z,8.27
2022-10-05T17:55:47.915Z,8.20
2022-10-05T17:59:01.730Z,7.10
2022-10-05T18:01:33.893Z,6.33
2022-10-05T18:04:39.693Z,5.70
2022-10-05T18:07:27.710Z,5.23
2022-10-05T18:10:21.527Z,9.23
2022-10-05T18:12:52.648Z,8.43
2022-10-05T18:15:48.422Z,9.90
2022-10-05T18:18:58.874Z,7.67
2022-10-05T18:21:38.011Z,6.30
2022-10-05T18:24:56.009Z,6.83
2022-10-05T18:28:03.878Z,5.60
2022-10-05T18:30:39.906Z,31.83
2022-10-05T18:33:54.480Z,12.17
2022-10-05T18:36:55.440Z,9.30
2022-10-05T18:39:48.796Z,14.03
2022-10-05T18:42:25.289Z,30.50
2022-10-05T18:44:58.755Z,45.67
2022-10-05T18:47:37.951Z,35.93
2022-10-05T18:50:27.410Z,20.83
2022-10-05T18:53:12.847Z,10.80
2022-10-05T18:55:46.940Z,10.13
2022-10-05T18:58:23.210Z,9.87
2022-10-05T19:01:33.212Z,9.63
2022-10-05T19:04:16.376Z,7.60
2022-10-05T19:06:58.127Z,8.47
2022-10-05T19:09:49.097Z,7.33
2022-10-05T19:12:30.414Z,7.63
2022-10-05T19:15:08.581Z,7.57
2022-10-05T19:18:04.477Z,7.17
2022-10-05T19:20:39.966Z,6.50
2022-10-05T19:23:27.133Z,8.10
2022-10-05T19:26:09.019Z,7.33
2022-10-05T19:28:48.023Z,6.73
2022-10-05T19:31:31.764Z,6.20
2022-10-05T19:34:21.849Z,14.90
2022-10-05T19:37:08.060Z,9.07
2022-10-05T19:39:47.087Z,7.10
2022-10-05T19:42:50.811Z,8.30
2022-10-05T19:45:24.636Z,8.97
2022-10-05T19:48:07.436Z,6.77
2022-10-05T19:50:38.457Z,7.10
2022-10-05T19:53:14.404Z,6.87
2022-10-05T19:55:45.800Z,7.10
2022-10-05T19:58:26.030Z,6.77
2022-10-05T20:00:58.175Z,7.63
2022-10-05T20:03:29.381Z,8.13
2022-10-05T20:05:59.614Z,7.23
2022-10-05T20:08:31.951Z,7.77
2022-10-05T20:11:12.339Z,7.37
2022-10-05T20:13:44.544Z,6.97
2022-10-05T20:16:47.273Z,8.20
2022-10-05T20:19:48.503Z,7.23
2022-10-05T20:22:34.564Z,8.00
2022-10-05T20:25:06.793Z,6.90
2022-10-05T20:27:49.650Z,7.13
2022-10-05T20:30:21.916Z,8.43
2022-10-05T20:32:51.140Z,8.13
2022-10-05T20:35:22.416Z,7.60
2022-10-05T20:37:51.035Z,7.70
2022-10-05T20:40:21.288Z,6.87
2022-10-05T20:42:50.381Z,8.00
2022-10-05T20:45:20.059Z,9.07
2022-10-05T20:47:48.401Z,8.60
2022-10-05T20:50:17.102Z,9.67
2022-10-05T20:52:45.487Z,8.80
2022-10-05T20:55:13.952Z,8.80
2022-10-05T20:57:42.647Z,9.67
2022-10-05T21:00:13.040Z,9.30
2022-10-05T21:02:57.577Z,9.13
2022-10-05T21:05:26.121Z,8.97
2022-10-05T21:07:54.499Z,8.10
2022-10-05T21:10:22.803Z,8.43
2022-10-05T21:12:51.443Z,9.00
2022-10-05T21:15:23.385Z,8.13
2022-10-05T21:17:53.161Z,8.70
2022-10-05T21:20:21.513Z,8.27
2022-10-05T21:22:49.863Z,8.27
2022-10-05T21:25:18.234Z,7.70
2022-10-05T21:27:48.693Z,8.03
2022-10-05T21:30:17.297Z,8.17
2022-10-05T21:32:45.650Z,9.10
2022-10-05T21:35:15.628Z,9.40
2022-10-05T21:37:43.979Z,8.53
2022-10-05T21:40:12.639Z,10.03
2022-10-05T21:42:40.980Z,8.40
2022-10-05T21:45:11.105Z,8.10
2022-10-05T21:47:39.471Z,7.07
2022-10-05T21:50:09.516Z,7.73
2022-10-05T21:52:39.285Z,7.90
2022-10-05T21:55:09.016Z,6.40
2022-10-05T21:57:37.749Z,7.40
2022-10-05T22:00:09.334Z,6.17
2022-10-05T22:02:37.965Z,6.70
2022-10-05T22:05:07.068Z,6.43
2022-10-05T22:07:35.601Z,6.47
2022-10-05T22:10:06.363Z,6.53
2022-10-05T22:12:35.140Z,5.53
2022-10-05T22:15:04.925Z,5.90
2022-10-05T22:17:33.481Z,6.07
2022-10-05T22:20:02.309Z,6.20
2022-10-05T22:22:31.394Z,6.17
2022-10-05T22:25:00.183Z,6.00
2022-10-05T22:27:30.701Z,5.67
2022-10-05T22:29:59.551Z,6.20
2022-10-05T22:32:27.921Z,5.90
2022-10-05T22:34:56.216Z,5.87
2022-10-05T22:37:24.705Z,5.83
2022-10-05T22:39:55.176Z,6.27
2022-10-05T22:42:23.437Z,5.50
2022-10-05T22:44:53.093Z,6.03
2022-10-05T22:47:21.289Z,6.13
2022-10-05T22:49:49.524Z,5.60
2022-10-05T22:52:17.999Z,5.43
2022-10-05T22:54:46.247Z,5.57
2022-10-05T22:57:14.615Z,5.03
2022-10-05T22:59:42.892Z,5.33
2022-10-05T23:02:13.991Z,5.50
2022-10-05T23:04:42.403Z,5.83
2022-10-05T23:07:10.629Z,5.40
2022-10-05T23:09:38.873Z,5.03
2022-10-05T23:12:07.543Z,5.73
2022-10-05T23:14:35.855Z,5.50
2022-10-05T23:17:04.258Z,5.80
2022-10-05T23:19:33.996Z,5.60
2022-10-05T23:22:02.258Z,5.20
2022-10-05T23:24:30.523Z,5.40
2022-10-05T23:26:58.799Z,5.57
2022-10-05T23:29:28.670Z,5.33
2022-10-05T23:31:56.968Z,5.30
2022-10-05T23:34:25.711Z,5.30
2022-10-05T23:36:55.384Z,5.37
2022-10-05T23:39:23.824Z,5.50
2022-10-05T23:41:52.065Z,5.07
2022-10-05T23:44:20.302Z,5.50
2022-10-05T23:46:48.571Z,4.80
2022-10-05T23:49:16.799Z,5.80
2022-10-05T23:51:45.449Z,4.93
2022-10-05T23:54:15.169Z,4.97
2022-10-05T23:56:43.752Z,4.47
2022-10-05T23:59:11.982Z,5.17
